Big Bear Station Historical Data
Daily Summary for September 27, 2017 Units:  English    Metric   Both
« Previous Day
Next Day »
Daily Weekly Monthly Yearly Custom
  High: Low: Average:
Temperature: 68.0 °F 34.5 °F 49.2 °F
Dew Point: 32.0 °F 24.6 °F 28.3 °F
Humidity: 82 % 22 % 49 %
Wind Speed: 6.8 mph 0.0 mph 1.2 mph
Wind Gust: -999.0 mph - -
Wind:- - WSW
Pressure: 30.19 in 30.07 in -
Precipitation: 0.00 in    
Historical Graphs
 
 
Tabular Data for September 27, 2017
Time Temperature Dew Point Pressure Wind Wind Speed Wind Gust Humidity Rainfall Rate (Hourly)
00:11 38.7 °F 27.9 °F 30.08 in Calm   -999.0 mph 65 % 0 in
00:27 38.3 °F 27.6 °F 30.08 in Calm   -999.0 mph 65 % 0 in
00:42 38.1 °F 27.0 °F 30.09 in Calm   -999.0 mph 64 % 0 in
00:57 37.8 °F 26.7 °F 30.09 in Calm   -999.0 mph 64 % 0 in
01:12 37.4 °F 27.4 °F 30.09 in Calm   -999.0 mph 67 % 0 in
01:27 37.0 °F 28.5 °F 30.09 in Calm   -999.0 mph 71 % 0 in
01:43 36.7 °F 28.5 °F 30.08 in Calm   -999.0 mph 72 % 0 in
01:58 36.5 °F 28.3 °F 30.09 in Calm   -999.0 mph 72 % 0 in
02:13 36.7 °F 29.2 °F 30.09 in Calm   -999.0 mph 74 % 0 in
02:28 36.0 °F 28.5 °F 30.09 in Calm   -999.0 mph 74 % 0 in
02:43 35.8 °F 27.7 °F 30.08 in Calm   -999.0 mph 72 % 0 in
02:59 35.4 °F 27.9 °F 30.08 in Calm   -999.0 mph 74 % 0 in
03:14 35.2 °F 27.7 °F 30.08 in Calm   -999.0 mph 74 % 0 in
03:29 34.5 °F 27.1 °F 30.08 in Calm   -999.0 mph 74 % 0 in
03:44 34.5 °F 27.1 °F 30.08 in Calm   -999.0 mph 74 % 0 in
03:59 34.7 °F 26.3 °F 30.08 in Calm   -999.0 mph 71 % 0 in
04:15 35.2 °F 28.4 °F 30.07 in ESE 1.7 mph -999.0 mph 76 % 0 in
04:30 35.2 °F 28.4 °F 30.07 in Calm   -999.0 mph 76 % 0 in
04:45 34.7 °F 26.3 °F 30.08 in Calm   -999.0 mph 71 % 0 in
05:00 34.5 °F 25.0 °F 30.08 in Calm   -999.0 mph 68 % 0 in
05:15 36.0 °F 25.4 °F 30.08 in Calm   -999.0 mph 65 % 0 in
05:31 35.8 °F 27.7 °F 30.09 in Calm   -999.0 mph 72 % 0 in
05:46 35.4 °F 28.3 °F 30.09 in Calm   -999.0 mph 75 % 0 in
06:01 35.2 °F 28.1 °F 30.10 in Calm   -999.0 mph 75 % 0 in
06:16 35.6 °F 29.1 °F 30.10 in Calm   -999.0 mph 77 % 0 in
06:31 36.5 °F 31.5 °F 30.10 in Calm   -999.0 mph 82 % 0 in
06:47 36.1 °F 29.9 °F 30.10 in Calm   -999.0 mph 78 % 0 in
07:02 36.3 °F 29.8 °F 30.11 in Calm   -999.0 mph 77 % 0 in
07:17 36.7 °F 30.2 °F 30.11 in Calm   -999.0 mph 77 % 0 in
07:32 37.0 °F 30.1 °F 30.11 in Calm   -999.0 mph 76 % 0 in
07:48 38.5 °F 31.9 °F 30.11 in Calm   -999.0 mph 77 % 0 in
08:03 40.5 °F 31.5 °F 30.11 in Calm   -999.0 mph 70 % 0 in
08:18 41.5 °F 31.0 °F 30.12 in Calm   -999.0 mph 66 % 0 in
08:33 43.2 °F 31.1 °F 30.12 in Calm   -999.0 mph 62 % 0 in
08:48 44.2 °F 30.8 °F 30.12 in Calm   -999.0 mph 59 % 0 in
09:04 47.1 °F 29.9 °F 30.12 in Calm   -999.0 mph 51 % 0 in
09:19 50.0 °F 29.5 °F 30.13 in ESE 1.1 mph -999.0 mph 45 % 0 in
09:34 52.3 °F 28.7 °F 30.13 in NNW 2.2 mph -999.0 mph 40 % 0 in
09:49 54.1 °F 28.4 °F 30.13 in Calm   -999.0 mph 37 % 0 in
10:04 55.8 °F 28.5 °F 30.13 in North 3.7 mph -999.0 mph 35 % 0 in
10:20 56.8 °F 28.0 °F 30.13 in NW 5.3 mph -999.0 mph 33 % 0 in
10:35 58.5 °F 28.7 °F 30.13 in ENE 1.1 mph -999.0 mph 32 % 0 in
10:50 60.1 °F 30.9 °F 30.14 in NNW 2.7 mph -999.0 mph 33 % 0 in
11:05 60.6 °F 29.8 °F 30.14 in North 3.2 mph -999.0 mph 31 % 0 in
11:20 61.2 °F 30.3 °F 30.14 in NW 5.8 mph -999.0 mph 31 % 0 in
11:36 62.2 °F 32.0 °F 30.14 in NNW 5.8 mph -999.0 mph 32 % 0 in
11:51 64.0 °F 29.3 °F 30.14 in ESE 3.7 mph -999.0 mph 27 % 0 in
12:06 64.6 °F 28.0 °F 30.14 in NNE 2.7 mph -999.0 mph 25 % 0 in
12:22 65.1 °F 29.4 °F 30.14 in NE 3.2 mph -999.0 mph 26 % 0 in
12:37 65.8 °F 28.0 °F 30.13 in NW 1.1 mph -999.0 mph 24 % 0 in
12:52 66.6 °F 28.7 °F 30.13 in East 3.2 mph -999.0 mph 24 % 0 in
13:08 67.8 °F 28.6 °F 30.13 in Calm   -999.0 mph 23 % 0 in
13:23 66.9 °F 27.9 °F 30.13 in WNW 6.8 mph -999.0 mph 23 % 0 in
13:38 67.3 °F 27.1 °F 30.13 in ESE 2.2 mph -999.0 mph 22 % 0 in
13:53 66.6 °F 29.7 °F 30.13 in North 5.3 mph -999.0 mph 25 % 0 in
14:08 68.0 °F 27.7 °F 30.12 in SW 2.7 mph -999.0 mph 22 % 0 in
14:24 66.7 °F 28.8 °F 30.12 in West 3.2 mph -999.0 mph 24 % 0 in
14:39 65.3 °F 27.6 °F 30.12 in Calm   -999.0 mph 24 % 0 in
14:54 65.3 °F 27.6 °F 30.12 in NNW 5.8 mph -999.0 mph 24 % 0 in
15:10 64.8 °F 30.0 °F 30.12 in ESE 3.2 mph -999.0 mph 27 % 0 in
15:25 65.8 °F 29.0 °F 30.12 in NW 4.2 mph -999.0 mph 25 % 0 in
15:40 64.4 °F 27.8 °F 30.12 in SSE 1.7 mph -999.0 mph 25 % 0 in
15:55 63.5 °F 29.8 °F 30.12 in NW 4.7 mph -999.0 mph 28 % 0 in
16:11 62.8 °F 29.2 °F 30.12 in NW 4.7 mph -999.0 mph 28 % 0 in
16:26 63.1 °F 27.6 °F 30.13 in Calm   -999.0 mph 26 % 0 in
16:41 62.6 °F 28.1 °F 30.13 in NW 4.7 mph -999.0 mph 27 % 0 in
16:56 62.4 °F 28.9 °F 30.13 in NW 3.2 mph -999.0 mph 28 % 0 in
17:12 63.7 °F 28.2 °F 30.13 in NW 4.2 mph -999.0 mph 26 % 0 in
17:27 61.0 °F 28.5 °F 30.13 in NW 3.7 mph -999.0 mph 29 % 0 in
17:42 59.7 °F 31.3 °F 30.13 in WNW 3.7 mph -999.0 mph 34 % 0 in
17:57 59.2 °F 29.3 °F 30.14 in NW 3.7 mph -999.0 mph 32 % 0 in
18:12 58.3 °F 27.8 °F 30.14 in West 2.7 mph -999.0 mph 31 % 0 in
18:28 57.2 °F 28.3 °F 30.14 in Calm   -999.0 mph 33 % 0 in
18:43 55.9 °F 26.5 °F 30.15 in Calm   -999.0 mph 32 % 0 in
18:58 53.8 °F 26.1 °F 30.15 in Calm   -999.0 mph 34 % 0 in
19:13 52.5 °F 25.6 °F 30.16 in Calm   -999.0 mph 35 % 0 in
19:28 51.4 °F 24.6 °F 30.16 in Calm   -999.0 mph 35 % 0 in
19:44 50.5 °F 25.8 °F 30.16 in Calm   -999.0 mph 38 % 0 in
19:59 49.8 °F 26.4 °F 30.16 in Calm   -999.0 mph 40 % 0 in
20:14 49.1 °F 25.2 °F 30.16 in Calm   -999.0 mph 39 % 0 in
20:29 48.2 °F 25.0 °F 30.16 in Calm   -999.0 mph 40 % 0 in
20:44 47.3 °F 26.5 °F 30.17 in Calm   -999.0 mph 44 % 0 in
21:00 46.8 °F 28.6 °F 30.17 in Calm   -999.0 mph 49 % 0 in
21:15 45.9 °F 28.3 °F 30.17 in Calm   -999.0 mph 50 % 0 in
21:30 45.3 °F 27.7 °F 30.18 in Calm   -999.0 mph 50 % 0 in
21:45 44.8 °F 27.3 °F 30.18 in Calm   -999.0 mph 50 % 0 in
22:00 43.7 °F 28.1 °F 30.18 in Calm   -999.0 mph 54 % 0 in
22:16 43.5 °F 28.4 °F 30.18 in Calm   -999.0 mph 55 % 0 in
22:31 43.3 °F 28.2 °F 30.18 in Calm   -999.0 mph 55 % 0 in
22:46 43.0 °F 28.8 °F 30.18 in Calm   -999.0 mph 57 % 0 in
23:01 42.6 °F 28.4 °F 30.18 in Calm   -999.0 mph 57 % 0 in
23:17 42.4 °F 27.8 °F 30.19 in Calm   -999.0 mph 56 % 0 in
23:32 41.9 °F 27.8 °F 30.18 in Calm   -999.0 mph 57 % 0 in
23:47 41.2 °F 26.7 °F 30.18 in Calm   -999.0 mph 56 % 0 in
Big Bear CA Weather
Compliments of Weather Underground - 1.5 mb